Time;durP1;ratioP1;P1;durP2;ratioP2;P2;SDS_P1;SDS_P2;PMS_P1;PMS_P2;Temp;Humidity;BMP_temperature;BMP_pressure;BME280_temperature;BME280_humidity;BME280_pressure;Samples;Min_cycle;Max_cycle;Signal;HPM_P1;HPM_P2
2022/05/01 00:02:19;;;;;;;148.25;63.68;;;;;;;6.05;62.63;101163.09;1755918;80;21030;-68
2022/05/01 00:04:45;;;;;;;147.40;64.12;;;;;;;6.05;62.68;101163.09;1756392;79;21140;-68
2022/05/01 00:07:12;;;;;;;116.93;51.10;;;;;;;6.03;62.71;101159.71;1776557;79;20962;-68
2022/05/01 00:09:40;;;;;;;82.10;36.20;;;;;;;6.03;62.78;101162.36;1789824;80;20994;-68
2022/05/01 00:12:08;;;;;;;37.10;17.17;;;;;;;6.00;62.81;101159.48;1789950;80;21030;-68
2022/05/01 00:14:34;;;;;;;31.57;16.65;;;;;;;5.98;62.85;101160.06;1780272;78;21454;-68
2022/05/01 00:17:01;;;;;;;50.40;22.58;;;;;;;5.99;62.87;101156.47;1779414;78;21925;-68
2022/05/01 00:19:27;;;;;;;43.50;20.32;;;;;;;6.01;62.88;101156.36;1759091;78;20982;-68
2022/05/01 00:21:55;;;;;;;46.73;22.62;;;;;;;6.04;62.88;101154.78;1775202;78;20954;-69
2022/05/01 00:24:21;;;;;;;40.05;18.10;;;;;;;6.04;62.91;101150.81;1790071;80;20975;-68
2022/05/01 00:26:47;;;;;;;37.17;17.90;;;;;;;6.07;62.94;101154.53;1789048;78;20898;-68
2022/05/01 00:29:13;;;;;;;37.20;18.30;;;;;;;6.12;62.97;101152.85;1784082;78;21508;-68
2022/05/01 00:31:40;;;;;;;36.60;17.60;;;;;;;6.24;63.00;101144.75;1770560;78;21533;-68
2022/05/01 00:36:50;;;;;;;31.10;15.85;;;;;;;6.46;62.94;101144.70;1775149;80;21088;-69
2022/05/01 00:39:16;;;;;;;28.07;15.03;;;;;;;6.64;62.89;101141.50;1764719;79;21006;-68
2022/05/01 00:41:44;;;;;;;29.80;15.08;;;;;;;6.76;62.81;101143.13;1775780;80;21081;-68
2022/05/01 00:44:17;;;;;;;25.60;12.93;;;;;;;6.84;62.75;101141.53;1775931;80;21559;-68
2022/05/01 00:46:48;;;;;;;27.90;14.75;;;;;;;6.94;62.63;101141.59;1775373;79;21046;-68
2022/05/01 00:49:22;;;;;;;31.55;15.10;;;;;;;6.98;62.58;101143.02;1774423;79;21460;-68
2022/05/01 00:51:58;;;;;;;28.85;16.30;;;;;;;6.96;62.53;101142.33;1776001;80;21058;-68
2022/05/01 00:54:30;;;;;;;37.55;20.60;;;;;;;6.91;62.52;101139.20;1749005;79;21208;-68
2022/05/01 00:57:04;;;;;;;46.18;24.27;;;;;;;6.87;62.53;101141.75;1745107;82;21006;-68
2022/05/01 00:59:30;;;;;;;40.75;21.65;;;;;;;6.83;62.52;101141.64;1764490;79;21456;-68
2022/05/01 01:01:56;;;;;;;51.83;24.50;;;;;;;6.79;62.55;101138.92;1776119;80;21010;-68
2022/05/01 01:04:23;;;;;;;64.37;32.78;;;;;;;6.76;62.56;101145.77;1753266;79;21499;-68
2022/05/01 01:06:49;;;;;;;62.45;31.27;;;;;;;6.73;62.58;101145.55;1744774;82;21804;-68
2022/05/01 01:09:15;;;;;;;64.82;34.05;;;;;;;6.69;62.61;101147.25;1745632;79;20887;-68
2022/05/01 01:11:45;;;;;;;77.65;36.88;;;;;;;6.66;62.64;101143.53;1745974;79;21050;-68
2022/05/01 01:14:11;;;;;;;59.77;32.42;;;;;;;6.64;62.69;101149.45;1745661;81;20991;-68
2022/05/01 01:16:38;;;;;;;54.80;28.45;;;;;;;6.60;62.74;101144.05;1745283;82;21542;-68
2022/05/01 01:19:07;;;;;;;40.95;19.25;;;;;;;6.60;62.80;101144.05;1749309;79;21070;-68
2022/05/01 01:21:33;;;;;;;34.03;15.95;;;;;;;6.65;62.81;101140.55;1745578;79;21435;-68
2022/05/01 01:24:00;;;;;;;32.42;13.45;;;;;;;6.71;62.82;101141.36;1745299;82;20990;-68
2022/05/01 01:26:26;;;;;;;33.35;16.50;;;;;;;6.88;62.78;101148.75;1762828;79;20987;-68
2022/05/01 01:28:52;;;;;;;27.98;14.80;;;;;;;7.03;62.71;101148.80;1754953;79;20887;-68
2022/05/01 01:34:05;;;;;;;23.47;12.25;;;;;;;7.24;62.51;101149.64;1771842;79;21425;-69
2022/05/01 01:36:32;;;;;;;24.83;11.73;;;;;;;7.29;62.42;101144.77;1773363;79;21486;-68
2022/05/01 01:38:59;;;;;;;28.02;12.80;;;;;;;7.34;62.33;101145.70;1738979;81;20998;-68
2022/05/01 01:41:29;;;;;;;25.20;13.60;;;;;;;7.41;62.21;101153.02;1737796;82;21030;-68
2022/05/01 01:43:55;;;;;;;32.28;14.98;;;;;;;7.40;62.10;101150.00;1741944;82;21204;-68
2022/05/01 01:46:22;;;;;;;27.67;13.65;;;;;;;7.43;61.99;101146.23;1747446;79;21014;-68
2022/05/01 01:48:48;;;;;;;30.48;15.25;;;;;;;7.41;61.90;101141.08;1773467;79;21066;-68
2022/05/01 01:51:14;;;;;;;46.98;20.52;;;;;;;7.41;61.81;101148.20;1775986;80;21502;-68
2022/05/01 01:53:40;;;;;;;24.87;14.35;;;;;;;7.33;61.73;101148.84;1776297;80;20982;-68
2022/05/01 01:56:09;;;;;;;30.27;16.42;;;;;;;7.24;61.73;101140.84;1775819;80;21488;-68
2022/05/01 01:58:36;;;;;;;37.63;19.00;;;;;;;7.20;61.69;101143.39;1764824;79;21037;-68
2022/05/01 02:01:04;;;;;;;36.63;16.30;;;;;;;7.14;61.68;101138.61;1765531;79;21428;-68
2022/05/01 02:03:30;;;;;;;36.98;17.27;;;;;;;7.10;61.65;101136.70;1775841;80;22508;-68
2022/05/01 02:05:56;;;;;;;32.10;16.35;;;;;;;7.10;61.57;101134.53;1749746;79;21002;-68
2022/05/01 02:08:22;;;;;;;30.12;14.90;;;;;;;7.05;61.56;101140.22;1776250;79;21424;-69
2022/05/01 02:10:48;;;;;;;29.20;14.45;;;;;;;6.93;61.23;101116.89;1777461;79;20965;-69
2022/05/01 02:13:14;;;;;;;30.40;16.75;;;;;;;6.93;61.23;101116.89;1748655;80;20988;-68
2022/05/01 02:15:41;;;;;;;28.92;13.78;;;;;;;7.03;61.40;101132.88;1740640;82;21574;-68
2022/05/01 02:18:07;;;;;;;35.15;19.82;;;;;;;6.99;61.35;101133.62;1741320;79;21515;-68
2022/05/01 02:23:18;;;;;;;35.30;18.80;;;;;;;6.91;61.30;101129.92;1740413;82;20998;-68
2022/05/01 02:25:44;;;;;;;31.12;17.12;;;;;;;6.84;61.30;101132.73;1740713;79;21541;-69
2022/05/01 02:28:13;;;;;;;43.08;21.12;;;;;;;6.79;61.34;101129.64;1757995;79;20974;-69
2022/05/01 02:30:39;;;;;;;40.60;20.80;;;;;;;6.75;61.37;101128.20;1746142;79;21007;-68
2022/05/01 02:33:06;;;;;;;40.38;21.80;;;;;;;6.66;61.42;101128.47;1756786;79;21035;-69
2022/05/01 02:35:33;;;;;;;32.30;17.82;;;;;;;6.59;61.49;101125.97;1749321;79;21474;-68
2022/05/01 02:38:00;;;;;;;43.98;22.48;;;;;;;6.50;61.58;101127.59;1764408;79;20991;-69
2022/05/01 02:40:26;;;;;;;40.00;19.62;;;;;;;6.41;61.65;101119.05;1741001;79;21046;-68
2022/05/01 02:42:52;;;;;;;39.75;22.20;;;;;;;6.36;61.75;101122.58;1740694;82;20991;-68
2022/05/01 02:45:18;;;;;;;48.58;22.70;;;;;;;6.30;61.83;101127.51;1740533;81;21174;-68
2022/05/01 02:47:44;;;;;;;38.08;19.45;;;;;;;6.23;61.96;101123.19;1740827;79;20946;-68
2022/05/01 02:50:10;;;;;;;35.75;20.25;;;;;;;6.19;62.06;101120.47;1740498;82;21034;-68
2022/05/01 02:52:36;;;;;;;32.73;18.02;;;;;;;6.17;62.16;101118.41;1749704;79;20995;-68
2022/05/01 02:55:03;;;;;;;34.38;16.90;;;;;;;6.14;62.26;101117.81;1742598;79;20967;-68
2022/05/01 02:57:30;;;;;;;34.75;18.67;;;;;;;6.13;62.36;101115.64;1741095;79;21907;-69
2022/05/01 02:59:55;;;;;;;29.18;15.90;;;;;;;6.12;62.45;101123.73;1740598;79;20852;-68
2022/05/01 03:02:21;;;;;;;41.42;18.25;;;;;;;6.09;62.51;101115.52;1740748;79;20903;-68
2022/05/01 03:04:47;;;;;;;41.35;20.77;;;;;;;6.07;62.60;101118.79;1748124;79;20836;-68
2022/05/01 03:07:15;;;;;;;37.13;21.00;;;;;;;6.02;62.70;101120.95;1769856;79;20995;-69
2022/05/01 03:09:42;;;;;;;35.95;20.72;;;;;;;5.97;62.78;101120.50;1770503;80;21146;-68
2022/05/01 03:12:08;;;;;;;35.28;17.67;;;;;;;5.92;62.90;101112.06;1741436;79;21013;-68
2022/05/01 03:14:34;;;;;;;40.43;20.92;;;;;;;5.90;62.99;101120.63;1740491;82;21518;-68
2022/05/01 03:17:01;;;;;;;50.85;22.82;;;;;;;5.87;63.05;101116.91;1741166;79;20978;-68
2022/05/01 03:22:10;;;;;;;41.02;22.70;;;;;;;5.78;63.21;101120.23;1740126;81;21066;-68
2022/05/01 03:24:38;;;;;;;43.85;23.80;;;;;;;5.73;63.30;101114.48;1741150;79;20895;-68
2022/05/01 03:27:05;;;;;;;58.17;28.07;;;;;;;5.68;63.37;101124.56;1740419;79;21002;-68
2022/05/01 03:29:32;;;;;;;60.83;31.07;;;;;;;5.64;63.45;101123.12;1745127;79;21038;-68
2022/05/01 03:31:59;;;;;;;52.27;25.55;;;;;;;5.58;63.53;101124.45;1750039;79;21017;-68
2022/05/01 03:34:26;;;;;;;46.58;24.82;;;;;;;5.54;63.61;101122.53;1775692;80;21535;-68
2022/05/01 03:36:54;;;;;;;48.23;26.00;;;;;;;5.52;63.72;101122.30;1772694;79;21038;-68
2022/05/01 03:39:20;;;;;;;51.63;27.98;;;;;;;5.51;63.82;101120.13;1752734;79;21478;-68
2022/05/01 03:41:47;;;;;;;52.23;26.60;;;;;;;5.53;63.90;101129.25;1745214;82;21552;-68
2022/05/01 03:44:13;;;;;;;54.73;28.02;;;;;;;5.52;64.02;101128.41;1745186;82;21046;-68
2022/05/01 03:46:39;;;;;;;55.83;28.45;;;;;;;5.53;64.08;101130.09;1770653;79;21121;-68
2022/05/01 03:49:06;;;;;;;62.48;30.17;;;;;;;5.55;64.19;101124.70;1751797;79;20991;-68
2022/05/01 03:51:33;;;;;;;66.45;32.38;;;;;;;5.58;64.30;101126.26;1745207;82;20990;-69
2022/05/01 03:54:02;;;;;;;56.15;29.63;;;;;;;5.62;64.37;101126.38;1745327;79;20991;-68
2022/05/01 03:56:30;;;;;;;51.88;27.17;;;;;;;5.62;64.47;101124.58;1744991;82;21534;-68
2022/05/01 03:58:57;;;;;;;55.45;27.22;;;;;;;5.63;64.58;101130.72;1745820;79;21126;-68
2022/05/01 04:01:26;;;;;;;50.50;25.17;;;;;;;5.70;64.69;101130.60;1765408;79;20970;-68
2022/05/01 04:03:53;;;;;;;45.20;25.10;;;;;;;5.75;64.76;101136.36;1776158;80;21006;-68
2022/05/01 04:06:19;;;;;;;41.95;22.85;;;;;;;5.79;64.84;101128.06;1770027;79;21280;-68
2022/05/01 04:08:45;;;;;;;42.48;22.75;;;;;;;5.84;64.93;101127.70;1756452;79;21254;-68
2022/05/01 04:11:11;;;;;;;35.23;19.60;;;;;;;5.89;65.01;101129.05;1773651;79;21134;-69
2022/05/01 04:13:37;;;;;;;42.75;21.52;;;;;;;5.95;65.06;101128.55;1751949;79;20978;-68
2022/05/01 04:16:04;;;;;;;38.38;21.82;;;;;;;6.09;65.14;101130.08;1745233;82;20994;-68
2022/05/01 04:18:34;;;;;;;40.30;23.77;;;;;;;6.36;65.25;101137.14;1743209;79;20983;-68
2022/05/01 04:21:01;;;;;;;42.93;23.67;;;;;;;6.93;65.40;101139.94;1740637;79;24117;-68
2022/05/01 04:23:27;;;;;;;39.53;22.45;;;;;;;7.89;65.48;101136.45;1741890;79;21492;-69
2022/05/01 04:25:53;;;;;;;42.75;24.65;;;;;;;8.88;65.27;101133.70;1748180;79;21056;-69
2022/05/01 04:28:19;;;;;;;46.68;24.90;;;;;;;9.85;64.90;101143.14;1769798;79;21058;-69
2022/05/01 04:30:46;;;;;;;50.88;24.72;;;;;;;10.73;64.33;101139.82;1770900;81;20887;-69
2022/05/01 04:33:14;;;;;;;41.88;23.90;;;;;;;11.33;63.66;101145.63;1771098;81;21030;-69
2022/05/01 04:35:46;;;;;;;41.90;24.32;;;;;;;11.94;63.28;101144.67;1766534;79;21101;-69
2022/05/01 04:38:16;;;;;;;46.05;23.57;;;;;;;12.59;62.75;101147.56;1752652;80;20971;-69
2022/05/01 04:40:45;;;;;;;46.15;25.72;;;;;;;12.72;61.99;101144.73;1745394;80;21061;-69
2022/05/01 04:43:13;;;;;;;49.50;27.20;;;;;;;12.23;61.42;101135.77;1769330;79;20967;-69
2022/05/01 04:45:42;;;;;;;51.75;27.05;;;;;;;11.97;60.96;101149.70;1773632;79;21069;-69
2022/05/01 04:48:09;;;;;;;42.45;24.47;;;;;;;11.33;60.55;101152.83;1744964;82;21305;-69
2022/05/01 04:50:35;;;;;;;42.10;23.52;;;;;;;10.66;60.47;101156.09;1751803;79;20982;-69
2022/05/01 04:53:02;;;;;;;43.55;24.05;;;;;;;10.37;60.59;101159.80;1746523;79;20998;-69
2022/05/01 04:55:29;;;;;;;36.08;20.70;;;;;;;10.37;60.47;101158.46;1745636;79;21026;-69
2022/05/01 04:57:56;;;;;;;34.20;18.62;;;;;;;10.42;60.15;101164.16;1776048;80;21456;-69
2022/05/01 05:00:22;;;;;;;35.78;21.87;;;;;;;10.53;60.00;101157.29;1776025;80;21002;-69
2022/05/01 05:02:51;;;;;;;30.90;20.08;;;;;;;10.86;59.92;101156.27;1775978;80;21015;-69
2022/05/01 05:05:17;;;;;;;36.13;20.55;;;;;;;11.31;59.80;101155.64;1763332;79;21521;-69
2022/05/01 05:07:43;;;;;;;41.30;20.15;;;;;;;11.40;59.69;101153.35;1747880;79;21026;-69
2022/05/01 05:10:10;;;;;;;31.33;19.00;;;;;;;11.57;59.57;101150.80;1750458;79;21039;-70
2022/05/01 05:12:37;;;;;;;28.62;18.02;;;;;;;11.76;59.43;101155.94;1758714;79;21108;-70
2022/05/01 05:15:08;;;;;;;26.60;16.87;;;;;;;11.96;59.24;101153.39;1756179;79;21510;-70
2022/05/01 05:17:33;;;;;;;35.10;17.48;;;;;;;12.17;58.96;101152.97;1769330;79;21027;-70
2022/05/01 05:19:59;;;;;;;27.25;18.37;;;;;;;12.25;58.63;101156.48;1770843;81;20971;-70
2022/05/01 05:22:25;;;;;;;30.35;16.70;;;;;;;12.35;58.37;101150.50;1749234;79;21133;-70
2022/05/01 05:24:51;;;;;;;31.97;17.25;;;;;;;12.44;58.09;101149.54;1759603;79;21142;-71
2022/05/01 05:27:20;;;;;;;28.55;17.60;;;;;;;12.63;57.49;101134.20;1745702;79;21483;-70
2022/05/01 05:29:45;;;;;;;26.10;17.07;;;;;;;12.63;57.49;101134.20;1740161;82;21007;-70
2022/05/01 05:32:11;;;;;;;27.25;16.20;;;;;;;13.05;57.33;101156.31;1740258;82;20892;-70
2022/05/01 05:34:37;;;;;;;27.27;17.90;;;;;;;13.22;56.98;101152.66;1748313;79;20902;-70
2022/05/01 05:37:03;;;;;;;26.10;17.02;;;;;;;13.37;56.69;101154.16;1748860;79;21511;-70
2022/05/01 05:39:29;;;;;;;27.90;17.23;;;;;;;13.66;56.35;101155.75;1746838;79;20994;-70
2022/05/01 05:41:55;;;;;;;25.60;16.30;;;;;;;13.74;55.94;101159.76;1745416;82;20905;-71
2022/05/01 05:44:21;;;;;;;27.93;15.40;;;;;;;13.83;55.59;101161.89;1745258;81;20903;-71
2022/05/01 05:46:47;;;;;;;25.32;14.87;;;;;;;14.03;55.24;101155.64;1754157;79;21002;-71
2022/05/01 05:49:13;;;;;;;21.62;15.63;;;;;;;14.10;54.88;101152.09;1756776;79;21156;-71
2022/05/01 05:51:39;;;;;;;26.20;14.05;;;;;;;14.32;54.62;101145.93;1757931;79;20867;-71
2022/05/01 05:54:05;;;;;;;25.23;15.13;;;;;;;14.57;54.27;101152.03;1776361;80;21302;-71
2022/05/01 05:56:31;;;;;;;23.12;15.05;;;;;;;14.74;53.90;101153.59;1753136;79;20950;-71
2022/05/01 05:58:57;;;;;;;25.92;15.75;;;;;;;14.89;53.58;101146.94;1745911;79;21068;-71
2022/05/01 06:01:23;;;;;;;25.52;15.53;;;;;;;15.22;53.28;101146.17;1745230;81;21946;-71
2022/05/01 06:03:49;;;;;;;23.15;14.75;;;;;;;15.38;52.90;101153.57;1765724;79;20950;-71
2022/05/01 06:06:15;;;;;;;23.70;15.83;;;;;;;15.46;52.54;101152.66;1756518;79;21006;-71
2022/05/01 06:08:43;;;;;;;28.70;15.25;;;;;;;15.58;52.14;101153.09;1745526;82;21038;-71
2022/05/01 06:11:09;;;;;;;28.50;17.00;;;;;;;15.73;51.85;101156.09;1769874;79;20987;-71
2022/05/01 06:13:35;;;;;;;18.60;13.78;;;;;;;15.82;51.54;101159.55;1771000;79;21135;-71
2022/05/01 06:16:01;;;;;;;21.50;13.95;;;;;;;15.86;51.26;101158.16;1723240;81;21119;-71
2022/05/01 06:18:27;;;;;;;20.00;13.00;;;;;;;15.94;50.91;101150.81;1745866;79;21047;-71
2022/05/01 06:20:53;;;;;;;20.20;12.73;;;;;;;15.84;50.69;101152.11;1774341;80;21551;-71
2022/05/01 06:23:21;;;;;;;17.73;12.20;;;;;;;15.94;50.59;101156.70;1774800;79;20979;-71
2022/05/01 06:25:47;;;;;;;19.02;12.98;;;;;;;15.80;50.11;101152.16;1762672;79;21132;-71
2022/05/01 06:28:14;;;;;;;24.82;14.20;;;;;;;15.84;49.95;101153.45;1746647;79;20975;-71
2022/05/01 06:30:43;;;;;;;21.85;13.60;;;;;;;16.03;49.59;101151.56;1745961;79;21511;-71
2022/05/01 06:33:10;;;;;;;19.17;13.15;;;;;;;16.19;49.33;101151.84;1745269;81;20971;-71
2022/05/01 06:35:36;;;;;;;19.40;12.43;;;;;;;16.33;49.22;101157.22;1730300;78;21076;-71
2022/05/01 06:38:03;;;;;;;20.80;12.25;;;;;;;16.40;49.00;101156.78;1744917;82;21147;-71
2022/05/01 06:40:29;;;;;;;23.45;16.10;;;;;;;16.42;48.68;101155.26;1747343;79;21764;-71
2022/05/01 06:42:55;;;;;;;17.75;12.68;;;;;;;16.58;48.44;101158.25;1756584;79;20994;-72
2022/05/01 06:45:21;;;;;;;20.75;13.20;;;;;;;16.56;48.10;101153.58;1771469;79;21582;-71
2022/05/01 06:47:46;;;;;;;21.30;10.75;;;;;;;16.87;47.88;101155.46;1772781;79;20883;-71
2022/05/01 06:50:13;;;;;;;17.82;9.00;;;;;;;17.13;47.64;101154.38;1771662;79;21129;-71
2022/05/01 06:52:39;;;;;;;11.20;7.10;;;;;;;17.14;47.27;101156.53;1747604;79;20978;-71
2022/05/01 06:55:06;;;;;;;12.58;8.58;;;;;;;17.03;46.61;101147.11;1753126;79;21026;-71
2022/05/01 06:57:32;;;;;;;14.05;8.78;;;;;;;17.11;46.02;101152.37;1775993;80;21030;-71
2022/05/01 06:59:58;;;;;;;15.55;8.50;;;;;;;17.16;45.51;101152.64;1776014;80;20999;-71
2022/05/01 07:02:24;;;;;;;10.75;7.35;;;;;;;17.43;45.22;101148.27;1773245;79;21037;-72
2022/05/01 07:04:50;;;;;;;9.70;6.65;;;;;;;17.48;44.67;101149.37;1748245;79;21023;-72
2022/05/01 07:07:16;;;;;;;10.45;6.53;;;;;;;17.43;44.21;101151.81;1745307;79;20904;-72
2022/05/01 07:09:42;;;;;;;14.35;7.12;;;;;;;17.52;43.70;101153.02;1745591;79;20983;-71
2022/05/01 07:12:11;;;;;;;10.98;7.15;;;;;;;17.50;43.19;101151.85;1745531;79;21062;-72
2022/05/01 07:14:38;;;;;;;11.38;7.62;;;;;;;17.47;42.73;101150.91;1746187;79;21255;-72
2022/05/01 07:17:04;;;;;;;12.68;7.37;;;;;;;17.55;42.37;101149.92;1745137;82;21077;-71
2022/05/01 07:19:30;;;;;;;13.70;7.15;;;;;;;17.55;41.94;101149.41;1762575;79;21452;-71
2022/05/01 07:21:56;;;;;;;11.88;7.35;;;;;;;17.56;41.53;101146.20;1775931;79;21535;-71
2022/05/01 07:24:22;;;;;;;12.68;7.85;;;;;;;17.67;41.27;101145.66;1752478;79;21002;-71
2022/05/01 07:26:48;;;;;;;13.83;8.18;;;;;;;18.11;41.19;101146.66;1745216;82;21161;-71
2022/05/01 07:29:14;;;;;;;13.00;7.40;;;;;;;17.98;40.62;101150.09;1745450;79;21002;-72
2022/05/01 07:31:42;;;;;;;13.98;8.05;;;;;;;18.03;40.55;101147.65;1746249;79;20987;-72
2022/05/01 07:34:10;;;;;;;12.55;8.08;;;;;;;18.15;40.31;101153.32;1771269;79;20980;-72
2022/05/01 07:36:37;;;;;;;13.13;7.80;;;;;;;18.19;40.00;101141.09;1746321;79;21011;-72
2022/05/01 07:39:03;;;;;;;14.23;8.80;;;;;;;18.37;39.80;101144.88;1745431;79;21089;-72
2022/05/01 07:41:29;;;;;;;17.98;9.40;;;;;;;18.50;39.57;101140.06;1745268;79;20997;-72
2022/05/01 07:43:55;;;;;;;15.43;9.00;;;;;;;18.73;39.42;101141.06;1747201;79;21053;-72
2022/05/01 07:46:22;;;;;;;10.78;8.33;;;;;;;18.99;39.29;101134.36;1745025;82;21050;-72
2022/05/01 07:48:48;;;;;;;15.55;9.25;;;;;;;19.13;39.10;101136.03;1744984;82;21093;-72
2022/05/01 07:51:17;;;;;;;17.05;10.25;;;;;;;19.32;38.92;101133.83;1757951;79;21079;-72
2022/05/01 07:53:44;;;;;;;16.48;10.88;;;;;;;19.44;38.77;101130.01;1774046;79;21002;-72
2022/05/01 07:56:09;;;;;;;14.73;9.05;;;;;;;19.53;38.51;101130.63;1755424;79;21054;-72
2022/05/01 07:58:36;;;;;;;14.00;9.28;;;;;;;19.60;38.37;101136.32;1745121;82;20895;-72
